ADDS METAR Data INFO
IDs: Format: Raw Decoded Include TAF

Data at: 2345 UTC 15 Dec 2017

KTMB 152253Z 32003KT 10SM CLR 18/12 A3010 RMK AO2 SLP192 T01830122
KTMB 152153Z 32007KT 10SM CLR 23/11 A3008 RMK AO2 SLP185 T02330111
KTMB 152053Z 30003KT 10SM CLR 26/11 A3006 RMK AO2 SLP179 T02560111 55005
KTMB 151953Z 30005KT 10SM CLR 26/12 A3006 RMK AO2 SLP178 T02610117
KTMB 151853Z 31009KT 10SM CLR 26/14 A3006 RMK AO2 SLP179 T02560139
KTMB 151753Z 27006KT 10SM CLR 25/11 A3008 RMK AO2 SLP185 T02500111 10256 20100 58017
KTMB 151653Z 24004KT 10SM CLR 23/12 A3011 RMK AO2 SLP195 T02330117
KTMB 151553Z 22004KT 10SM CLR 22/14 A3013 RMK AO2 SLP201 T02220144
KTMB 151453Z 00000KT 10SM CLR 21/15 A3013 RMK AO2 SLP202 T02110150 53011
KTMB 151353Z 00000KT 10SM CLR 18/14 A3012 RMK AO2 SLP198 T01830139
KTMB 151253Z 00000KT 10SM CLR 11/10 A3011 RMK AO2 SLP194 T01110100
KTMB 151153Z 00000KT 10SM CLR 11/11 A3010 RMK AO2 SLP191 T01110106 10122 20089 53008
KTMB 151053Z AUTO 00000KT 10SM CLR 10/09 A3008 RMK AO2 SLP186 T01000089
KTMB 150953Z AUTO 00000KT 10SM CLR 11/11 A3009 RMK AO2 SLP187 T01110106
KTMB 150853Z AUTO 00000KT 10SM CLR 11/11 A3007 RMK AO2 SLP183 T01060106 55005
KTMB 150753Z AUTO 00000KT 10SM CLR 11/11 A3006 RMK AO2 SLP179 T01060106
KTMB 150747Z AUTO 00000KT 3SM BR CLR 11/11 A3006 RMK AO2
KTMB 150738Z AUTO 00000KT 1 3/4SM BR CLR 11/11 A3007 RMK AO2 T01060106
KTMB 150653Z AUTO 00000KT 4SM BR CLR 11/10 A3008 RMK AO2 SLP185 T01060100
KTMB 150627Z AUTO 00000KT 10SM FEW003 10/09 A3009 RMK AO2 T01000089
KTMB 150553Z AUTO 00000KT 10SM CLR 11/11 A3009 RMK AO2 SLP189 T01110106 10156 20089 58006
KTMB 150453Z AUTO 00000KT 10SM CLR 11/10 A3011 RMK AO2 SLP195 T01060100 402170039
KTMB 150353Z AUTO 29004KT 10SM CLR 12/10 A3012 RMK AO2 SLP197 LAST T01170100
KTMB 150253Z 00000KT 10SM CLR 12/09 A3011 RMK AO2 SLP195 T01220094 50007
KTMB 150153Z 00000KT 10SM CLR 13/09 A3011 RMK AO2 SLP195 T01280089
KTMB 150053Z 17003KT 10SM CLR 15/10 A3009 RMK AO2 SLP187 T01500100
KTMB 142353Z 00000KT 10SM CLR 16/09 A3009 RMK AO2 SLP188 T01560089 10217 20156 53016
KTMB 142253Z 12003KT 10SM CLR 17/08 A3007 RMK AO2 SLP182 T01720078
KTMB 142153Z 00000KT 10SM CLR 20/08 A3005 RMK AO2 SLP175 T02000078
KTMB 142053Z 29004KT 10SM FEW250 21/06 A3004 RMK AO2 SLP171 T02060061 56016
KTMB 141953Z VRB03KT 10SM CLR 21/06 A3005 RMK AO2 SLP175 T02110056
KTMB 141853Z 26005KT 10SM CLR 20/05 A3007 RMK AO2 SLP181 T02000050
KTMB 141753Z VRB03KT 10SM CLR 21/07 A3009 RMK AO2 SLP187 T02110067 10211 20050 58018
KTMB 141653Z 36004KT 10SM CLR 19/07 A3011 RMK AO2 SLP194 T01940067
KTMB 141553Z 32007KT 10SM CLR 18/06 A3013 RMK AO2 SLP202 T01830061
KTMB 141453Z 32004KT 10SM CLR 17/08 A3014 RMK AO2 SLP205 T01670078 53018
KTMB 141353Z VRB03KT 10SM CLR 14/09 A3011 RMK AO2 SLP196 T01390094
KTMB 141253Z 00000KT 8SM CLR 07/06 A3009 RMK AO2 SLP190 T00720061
KTMB 141153Z 00000KT 10SM CLR 05/04 A3009 RMK AO2 SLP187 T00500044 10083 20039 53010